createdAt,value
2018-08-20T00:00:48.933Z,17.96
2018-08-20T00:01:48.826Z,18.09
2018-08-20T00:02:48.738Z,18.23
2018-08-20T00:03:48.646Z,18.20
2018-08-20T00:04:48.574Z,18.31
2018-08-20T00:05:48.485Z,18.28
2018-08-20T00:06:48.384Z,18.31
2018-08-20T00:07:48.294Z,18.35
2018-08-20T00:08:48.205Z,18.26
2018-08-20T00:09:48.116Z,18.34
2018-08-20T00:10:48.043Z,18.23
2018-08-20T00:11:47.935Z,18.29
2018-08-20T00:12:47.847Z,18.25
2018-08-20T00:13:47.761Z,18.28
2018-08-20T00:14:47.670Z,18.31
2018-08-20T00:15:47.599Z,18.28
2018-08-20T00:16:47.488Z,18.31
2018-08-20T00:17:47.400Z,18.32
2018-08-20T00:18:47.312Z,18.21
2018-08-20T00:19:47.224Z,17.99
2018-08-20T00:20:47.153Z,17.86
2018-08-20T00:21:47.045Z,17.79
2018-08-20T00:22:46.956Z,17.66
2018-08-20T00:23:46.867Z,17.36
2018-08-20T00:24:46.777Z,17.22
2018-08-20T00:25:46.722Z,17.06
2018-08-20T00:26:46.599Z,16.91
2018-08-20T00:27:46.508Z,16.92
2018-08-20T00:28:46.418Z,16.87
2018-08-20T00:29:46.332Z,16.82
2018-08-20T00:30:46.261Z,16.84
2018-08-20T00:31:46.152Z,16.85
2018-08-20T00:32:46.067Z,16.96
2018-08-20T00:33:45.976Z,16.95
2018-08-20T00:34:45.883Z,17.02
2018-08-20T00:35:45.809Z,17.24
2018-08-20T00:36:45.703Z,17.45
2018-08-20T00:37:45.620Z,17.49
2018-08-20T00:38:45.528Z,17.62
2018-08-20T00:39:45.439Z,17.63
2018-08-20T00:40:45.361Z,17.73
2018-08-20T00:41:45.257Z,17.71
2018-08-20T00:42:45.168Z,17.79
2018-08-20T00:43:45.081Z,17.80
2018-08-20T00:44:44.989Z,17.84
2018-08-20T00:45:44.917Z,17.86
2018-08-20T00:46:44.824Z,17.96
2018-08-20T00:47:44.720Z,17.94
2018-08-20T00:48:44.631Z,17.83
2018-08-20T00:49:44.547Z,17.77
2018-08-20T00:50:44.464Z,17.71
2018-08-20T00:51:44.362Z,17.68
2018-08-20T00:52:44.273Z,17.60
2018-08-20T00:53:44.186Z,17.47
2018-08-20T00:54:44.118Z,17.42
2018-08-20T00:55:44.005Z,17.30
2018-08-20T00:56:43.932Z,17.35
2018-08-20T00:57:43.824Z,17.27
2018-08-20T00:58:43.736Z,17.27
2018-08-20T00:59:43.649Z,17.33
2018-08-20T01:00:43.572Z,17.27
2018-08-20T01:01:43.469Z,17.38
2018-08-20T01:02:43.375Z,17.45
2018-08-20T01:03:43.290Z,17.38
2018-08-20T01:04:43.199Z,17.42
2018-08-20T01:05:43.114Z,17.24
2018-08-20T01:06:43.033Z,17.22
2018-08-20T01:07:42.931Z,17.18
2018-08-20T01:08:42.837Z,17.03
2018-08-20T01:09:42.850Z,16.92
2018-08-20T01:10:42.659Z,16.82
2018-08-20T01:11:42.589Z,16.85
2018-08-20T01:12:42.481Z,16.80
2018-08-20T01:13:42.393Z,16.70
2018-08-20T01:14:42.301Z,16.72
2018-08-20T01:15:42.212Z,16.65
2018-08-20T01:16:42.249Z,16.70
2018-08-20T01:17:42.033Z,16.72
2018-08-20T01:18:41.943Z,16.72
2018-08-20T01:19:41.853Z,16.66
2018-08-20T01:20:41.764Z,16.77
2018-08-20T01:21:41.691Z,16.69
2018-08-20T01:22:41.581Z,16.80
2018-08-20T01:23:41.598Z,16.78
2018-08-20T01:24:41.403Z,16.78
2018-08-20T01:25:41.314Z,16.78
2018-08-20T01:26:41.238Z,16.80
2018-08-20T01:27:41.136Z,16.75
2018-08-20T01:28:41.043Z,16.70
2018-08-20T01:29:40.955Z,16.78
2018-08-20T01:30:40.962Z,16.84
2018-08-20T01:31:40.789Z,16.95
2018-08-20T01:32:40.684Z,16.91
2018-08-20T01:33:40.594Z,16.81
2018-08-20T01:34:40.504Z,16.85
2018-08-20T01:35:40.414Z,16.80
2018-08-20T01:36:40.346Z,16.66
2018-08-20T01:37:40.338Z,16.80
2018-08-20T01:38:40.144Z,16.87
2018-08-20T01:39:40.054Z,16.85
2018-08-20T01:40:39.966Z,16.92
2018-08-20T01:41:39.891Z,16.95
2018-08-20T01:42:39.783Z,16.92
2018-08-20T01:43:39.696Z,17.02
2018-08-20T01:44:39.708Z,16.96
2018-08-20T01:45:39.520Z,17.00
2018-08-20T01:46:39.441Z,17.03
2018-08-20T01:47:39.338Z,17.22
2018-08-20T01:48:39.244Z,17.21
2018-08-20T01:49:39.155Z,17.17
2018-08-20T01:50:39.068Z,17.09
2018-08-20T01:51:39.093Z,16.99
2018-08-20T01:52:38.884Z,16.91
2018-08-20T01:53:38.795Z,16.98
2018-08-20T01:54:38.713Z,16.92
2018-08-20T01:55:38.615Z,17.05
2018-08-20T01:56:38.539Z,17.07
2018-08-20T01:57:38.433Z,17.15
2018-08-20T01:58:38.444Z,17.21
2018-08-20T01:59:38.253Z,17.22
2018-08-20T02:00:38.166Z,17.24
2018-08-20T02:01:38.092Z,17.24
2018-08-20T02:02:37.985Z,17.21
2018-08-20T02:03:37.893Z,17.21
2018-08-20T02:04:37.805Z,17.17
2018-08-20T02:05:37.813Z,17.06
2018-08-20T02:06:37.642Z,17.06
2018-08-20T02:07:37.538Z,16.87
2018-08-20T02:08:37.445Z,16.91
2018-08-20T02:09:37.354Z,16.91
2018-08-20T02:10:37.264Z,16.90
2018-08-20T02:11:37.191Z,16.87
2018-08-20T02:12:37.198Z,16.96
2018-08-20T02:13:37.000Z,16.91
2018-08-20T02:14:36.906Z,16.90
2018-08-20T02:15:36.814Z,16.95
2018-08-20T02:16:36.742Z,16.90
2018-08-20T02:17:36.634Z,17.03
2018-08-20T02:18:36.542Z,17.06
2018-08-20T02:19:36.453Z,16.98
2018-08-20T02:20:36.365Z,16.85
2018-08-20T02:21:36.292Z,16.62
2018-08-20T02:22:36.189Z,16.65
2018-08-20T02:23:36.092Z,16.66
2018-08-20T02:24:36.003Z,16.80
2018-08-20T02:25:35.913Z,16.88
2018-08-20T02:26:35.938Z,16.91
2018-08-20T02:27:35.732Z,16.90
2018-08-20T02:28:35.643Z,16.90
2018-08-20T02:29:35.555Z,16.95
2018-08-20T02:30:35.473Z,16.87
2018-08-20T02:31:35.391Z,16.90
2018-08-20T02:32:35.422Z,16.88
2018-08-20T02:33:35.195Z,17.05
2018-08-20T02:34:35.102Z,16.99
2018-08-20T02:35:35.012Z,16.96
2018-08-20T02:36:34.940Z,16.88
2018-08-20T02:37:34.836Z,16.90
2018-08-20T02:38:34.742Z,16.92
2018-08-20T02:39:34.653Z,16.84
2018-08-20T02:40:34.561Z,16.90
2018-08-20T02:41:34.488Z,16.95
2018-08-20T02:42:34.385Z,16.95
2018-08-20T02:43:34.293Z,16.91
2018-08-20T02:44:34.199Z,16.98
2018-08-20T02:45:34.113Z,16.98
2018-08-20T02:46:34.035Z,16.90
2018-08-20T02:47:33.933Z,16.96
2018-08-20T02:48:33.842Z,16.87
2018-08-20T02:49:33.751Z,16.98
2018-08-20T02:50:33.660Z,16.85
2018-08-20T02:51:33.576Z,16.82
2018-08-20T02:52:33.502Z,16.82
2018-08-20T02:53:33.391Z,16.69
2018-08-20T02:54:33.304Z,16.59
2018-08-20T02:55:33.210Z,16.48
2018-08-20T02:56:33.126Z,16.52
2018-08-20T02:57:33.048Z,16.48
2018-08-20T02:58:32.940Z,16.42
2018-08-20T02:59:32.851Z,16.37
2018-08-20T03:00:32.759Z,16.42
2018-08-20T03:01:32.676Z,16.52
2018-08-20T03:02:32.595Z,16.62
2018-08-20T03:03:32.513Z,16.59
2018-08-20T03:04:32.401Z,16.48
2018-08-20T03:05:32.312Z,16.50
2018-08-20T03:06:32.221Z,16.47
2018-08-20T03:07:32.144Z,16.47
2018-08-20T03:08:32.038Z,16.44
2018-08-20T03:09:31.948Z,16.44
2018-08-20T03:10:31.857Z,16.52
2018-08-20T03:11:31.774Z,16.45
2018-08-20T03:12:31.696Z,16.42
2018-08-20T03:13:31.588Z,16.40
2018-08-20T03:14:31.496Z,16.47
2018-08-20T03:15:31.718Z,16.41
2018-08-20T03:16:31.371Z,16.36
2018-08-20T03:17:31.354Z,16.33
2018-08-20T03:18:31.137Z,16.13
2018-08-20T03:19:31.045Z,16.07
2018-08-20T03:20:30.957Z,16.10
2018-08-20T03:21:30.864Z,16.08
2018-08-20T03:22:30.788Z,16.08
2018-08-20T03:23:30.685Z,16.23
2018-08-20T03:24:30.594Z,16.18
2018-08-20T03:25:30.506Z,16.36
2018-08-20T03:26:30.417Z,16.55
2018-08-20T03:27:30.339Z,16.55
2018-08-20T03:28:30.234Z,16.81
2018-08-20T03:29:30.143Z,16.81
2018-08-20T03:30:30.056Z,16.91
2018-08-20T03:31:29.961Z,16.95
2018-08-20T03:32:29.889Z,16.92
2018-08-20T03:33:29.792Z,16.80
2018-08-20T03:34:29.705Z,16.60
2018-08-20T03:35:29.601Z,16.45
2018-08-20T03:36:29.510Z,16.32
2018-08-20T03:37:29.434Z,16.33
2018-08-20T03:38:29.326Z,16.23
2018-08-20T03:39:29.244Z,16.27
2018-08-20T03:40:29.148Z,16.27
2018-08-20T03:41:29.057Z,16.22
2018-08-20T03:42:28.983Z,16.33
2018-08-20T03:43:28.875Z,16.51
2018-08-20T03:44:28.788Z,16.51
2018-08-20T03:45:28.696Z,16.51
2018-08-20T03:46:28.608Z,16.45
2018-08-20T03:47:28.529Z,16.57
2018-08-20T03:48:28.423Z,16.65
2018-08-20T03:49:28.333Z,16.65
2018-08-20T03:50:28.248Z,16.67
2018-08-20T03:51:28.153Z,16.57
2018-08-20T03:52:28.079Z,16.51
2018-08-20T03:53:27.972Z,16.55
2018-08-20T03:54:27.883Z,16.42
2018-08-20T03:55:27.801Z,16.47
2018-08-20T03:56:27.712Z,16.45
2018-08-20T03:57:27.626Z,16.52
2018-08-20T03:58:27.522Z,16.59
2018-08-20T03:59:27.428Z,16.66
2018-08-20T04:00:27.339Z,16.63
2018-08-20T04:01:27.251Z,16.45
2018-08-20T04:02:27.174Z,16.18
2018-08-20T04:03:27.065Z,16.06
2018-08-20T04:04:26.978Z,16.03
2018-08-20T04:05:26.886Z,16.06
2018-08-20T04:06:26.796Z,16.10
2018-08-20T04:07:26.723Z,16.10
2018-08-20T04:08:26.615Z,16.06
2018-08-20T04:09:26.525Z,15.92
2018-08-20T04:10:26.432Z,15.74
2018-08-20T04:11:26.446Z,15.68
2018-08-20T04:12:26.271Z,15.53
2018-08-20T04:13:26.166Z,15.53
2018-08-20T04:14:26.074Z,15.48
2018-08-20T04:15:25.981Z,15.56
2018-08-20T04:16:25.889Z,15.66
2018-08-20T04:17:25.815Z,15.60
2018-08-20T04:18:25.812Z,15.60
2018-08-20T04:19:25.617Z,15.68
2018-08-20T04:20:25.527Z,15.77
2018-08-20T04:21:25.437Z,15.93
2018-08-20T04:22:25.362Z,16.08
2018-08-20T04:23:25.257Z,16.23
2018-08-20T04:24:25.166Z,16.29
2018-08-20T04:25:25.172Z,16.26
2018-08-20T04:26:24.984Z,16.33
2018-08-20T04:27:24.910Z,16.33
2018-08-20T04:28:24.801Z,16.32
2018-08-20T04:29:24.711Z,16.26
2018-08-20T04:30:24.622Z,16.03
2018-08-20T04:31:24.529Z,15.89
2018-08-20T04:32:24.556Z,15.86
2018-08-20T04:33:24.356Z,15.78
2018-08-20T04:34:24.257Z,15.78
2018-08-20T04:35:24.168Z,15.77
2018-08-20T04:36:24.082Z,15.88
2018-08-20T04:37:23.990Z,15.89
2018-08-20T04:38:23.911Z,16.13
2018-08-20T04:39:23.904Z,16.13
2018-08-20T04:40:23.716Z,16.06
2018-08-20T04:41:23.624Z,15.99
2018-08-20T04:42:23.535Z,16.04
2018-08-20T04:43:23.458Z,15.98
2018-08-20T04:44:23.356Z,15.96
2018-08-20T04:45:23.269Z,15.92
2018-08-20T04:46:23.268Z,15.95
2018-08-20T04:47:23.082Z,15.81
2018-08-20T04:48:23.007Z,15.80
2018-08-20T04:49:22.900Z,15.86
2018-08-20T04:50:23.036Z,15.78
2018-08-20T04:51:22.847Z,15.66
2018-08-20T04:52:22.629Z,15.76
2018-08-20T04:53:22.654Z,15.70
2018-08-20T04:54:22.448Z,15.77
2018-08-20T04:55:22.355Z,15.80
2018-08-20T04:56:22.265Z,15.95
2018-08-20T04:57:22.178Z,16.10
2018-08-20T04:58:22.100Z,16.11
2018-08-20T04:59:21.993Z,16.23
2018-08-20T05:00:22.000Z,16.22
2018-08-20T05:01:21.813Z,16.29
2018-08-20T05:02:21.723Z,16.34
2018-08-20T05:03:21.652Z,16.25
2018-08-20T05:04:21.546Z,16.32
2018-08-20T05:05:21.450Z,16.32
2018-08-20T05:06:21.359Z,16.37
2018-08-20T05:07:21.374Z,16.45
2018-08-20T05:08:21.199Z,16.45
2018-08-20T05:09:21.093Z,16.51
2018-08-20T05:10:20.997Z,16.63
2018-08-20T05:11:20.912Z,16.69
2018-08-20T05:12:20.818Z,16.82
2018-08-20T05:13:20.743Z,16.91
2018-08-20T05:14:20.734Z,16.99
2018-08-20T05:15:20.547Z,17.09
2018-08-20T05:16:20.455Z,17.24
2018-08-20T05:17:20.366Z,17.24
2018-08-20T05:18:20.292Z,17.33
2018-08-20T05:19:20.203Z,17.46
2018-08-20T05:20:20.095Z,17.49
2018-08-20T05:21:20.007Z,17.54
2018-08-20T05:22:19.916Z,17.68
2018-08-20T05:23:19.849Z,17.73
2018-08-20T05:24:19.735Z,17.77
2018-08-20T05:25:19.649Z,17.81
2018-08-20T05:26:19.557Z,17.87
2018-08-20T05:27:19.466Z,17.87
2018-08-20T05:28:19.394Z,17.95
2018-08-20T05:29:19.296Z,17.86
2018-08-20T05:30:19.197Z,17.89
2018-08-20T05:31:19.108Z,17.80
2018-08-20T05:32:19.017Z,17.83
2018-08-20T05:33:18.944Z,17.76
2018-08-20T05:34:18.837Z,17.83
2018-08-20T05:35:18.748Z,17.73
2018-08-20T05:36:18.659Z,17.83
2018-08-20T05:37:18.570Z,17.83
2018-08-20T05:38:18.496Z,17.95
2018-08-20T05:39:18.396Z,18.07
2018-08-20T05:40:18.302Z,18.10
2018-08-20T05:41:18.213Z,18.25
2018-08-20T05:42:18.122Z,18.32
2018-08-20T05:43:18.051Z,18.36
2018-08-20T05:44:17.944Z,18.53
2018-08-20T05:45:17.856Z,18.68
2018-08-20T05:46:17.766Z,18.76
2018-08-20T05:47:17.678Z,18.82
2018-08-20T05:48:17.608Z,18.90
2018-08-20T05:49:17.498Z,18.96
2018-08-20T05:50:17.410Z,19.06
2018-08-20T05:51:17.319Z,19.21
2018-08-20T05:52:17.232Z,19.27
2018-08-20T05:53:17.159Z,19.32
2018-08-20T05:54:17.053Z,19.43
2018-08-20T05:55:16.965Z,19.49
2018-08-20T05:56:16.878Z,19.52
2018-08-20T05:57:16.788Z,19.62
2018-08-20T05:58:16.717Z,19.71
2018-08-20T05:59:16.674Z,19.80
2018-08-20T06:00:16.523Z,19.89
2018-08-20T06:01:16.434Z,19.97
2018-08-20T06:02:16.364Z,20.05
2018-08-20T06:03:16.274Z,20.08
2018-08-20T06:04:16.168Z,20.15
2018-08-20T06:05:16.082Z,20.22
2018-08-20T06:06:15.992Z,20.27
2018-08-20T06:07:15.903Z,20.42
2018-08-20T06:08:15.835Z,20.50
2018-08-20T06:09:15.728Z,20.51
2018-08-20T06:10:15.640Z,20.64
2018-08-20T06:11:15.552Z,20.69
2018-08-20T06:12:15.465Z,20.69
2018-08-20T06:13:15.393Z,20.73
2018-08-20T06:14:15.292Z,20.75
2018-08-20T06:15:15.219Z,20.73
2018-08-20T06:16:15.110Z,20.66
2018-08-20T06:17:15.028Z,20.66
2018-08-20T06:18:14.949Z,20.68
2018-08-20T06:19:14.848Z,20.73
2018-08-20T06:20:14.761Z,20.73
2018-08-20T06:21:14.672Z,20.79
2018-08-20T06:22:14.586Z,20.93
2018-08-20T06:23:14.498Z,20.85
2018-08-20T06:24:14.430Z,20.91
2018-08-20T06:25:14.324Z,20.79
2018-08-20T06:26:14.235Z,20.81
2018-08-20T06:27:14.147Z,20.76
2018-08-20T06:28:14.077Z,20.78
2018-08-20T06:29:13.974Z,20.81
2018-08-20T06:30:13.883Z,20.88
2018-08-20T06:31:13.798Z,20.87
2018-08-20T06:32:13.709Z,20.90
2018-08-20T06:33:13.624Z,21.00
2018-08-20T06:34:13.563Z,20.98
2018-08-20T06:35:13.446Z,21.00
2018-08-20T06:36:13.359Z,21.12
2018-08-20T06:37:13.380Z,21.09
2018-08-20T06:38:13.186Z,21.09
2018-08-20T06:39:13.119Z,21.09
2018-08-20T06:40:13.014Z,21.18
2018-08-20T06:41:12.922Z,21.26
2018-08-20T06:42:12.835Z,21.26
2018-08-20T06:43:12.749Z,21.49
2018-08-20T06:44:12.796Z,21.56
2018-08-20T06:45:12.573Z,21.71
2018-08-20T06:46:12.488Z,21.73
2018-08-20T06:47:12.397Z,21.96
2018-08-20T06:48:12.311Z,22.04
2018-08-20T06:49:12.241Z,22.36
2018-08-20T06:50:12.140Z,22.66
2018-08-20T06:51:12.053Z,22.86
2018-08-20T06:52:11.966Z,23.14
2018-08-20T06:53:11.880Z,23.25
2018-08-20T06:54:11.807Z,23.16
2018-08-20T06:55:11.708Z,23.44
2018-08-20T06:56:11.618Z,23.38
2018-08-20T06:57:11.532Z,23.49
2018-08-20T06:58:11.550Z,23.62
2018-08-20T06:59:11.377Z,23.50
2018-08-20T07:00:11.276Z,23.81
2018-08-20T07:01:11.194Z,23.79
2018-08-20T07:02:11.105Z,23.71
2018-08-20T07:03:11.019Z,23.82
2018-08-20T07:04:10.950Z,24.00
2018-08-20T07:05:10.954Z,24.16
2018-08-20T07:06:10.763Z,24.30
2018-08-20T07:07:10.682Z,24.39
2018-08-20T07:08:10.595Z,24.74
2018-08-20T07:09:10.528Z,24.86
2018-08-20T07:10:10.425Z,25.04
2018-08-20T07:11:10.341Z,25.02
2018-08-20T07:12:10.357Z,25.20
2018-08-20T07:13:10.175Z,25.31
2018-08-20T07:14:10.109Z,25.34
2018-08-20T07:15:10.007Z,25.39
2018-08-20T07:16:09.923Z,25.51
2018-08-20T07:17:09.841Z,25.71
2018-08-20T07:18:09.761Z,25.81
2018-08-20T07:19:09.793Z,25.76
2018-08-20T07:20:09.591Z,25.96
2018-08-20T07:21:09.511Z,26.09
2018-08-20T07:22:09.426Z,25.94
2018-08-20T07:23:09.344Z,25.72
2018-08-20T07:24:09.277Z,25.98
2018-08-20T07:25:09.180Z,25.83
2018-08-20T07:26:09.198Z,25.81
2018-08-20T07:27:09.019Z,25.97
2018-08-20T07:28:08.932Z,26.06
2018-08-20T07:29:08.867Z,26.11
2018-08-20T07:30:08.768Z,26.28
2018-08-20T07:31:08.684Z,26.64
2018-08-20T07:32:08.606Z,26.61
2018-08-20T07:33:08.630Z,26.56
2018-08-20T07:34:08.456Z,26.53
2018-08-20T07:35:08.363Z,26.24
2018-08-20T07:36:08.281Z,26.42
2018-08-20T07:37:08.197Z,26.65
2018-08-20T07:38:08.115Z,26.49
2018-08-20T07:39:08.074Z,26.54
2018-08-20T07:40:08.055Z,26.59
2018-08-20T07:41:07.870Z,26.66
2018-08-20T07:42:07.789Z,26.73
2018-08-20T07:43:07.709Z,26.88
2018-08-20T07:44:07.644Z,26.93
2018-08-20T07:45:07.551Z,26.86
2018-08-20T07:46:07.465Z,26.91
2018-08-20T07:47:07.487Z,27.13
2018-08-20T07:48:07.305Z,27.05
2018-08-20T07:49:07.242Z,27.39
2018-08-20T07:50:07.145Z,27.71
2018-08-20T07:51:07.062Z,27.65
2018-08-20T07:52:06.981Z,27.66
2018-08-20T07:53:06.902Z,27.78
2018-08-20T07:54:06.941Z,27.76
2018-08-20T07:55:06.740Z,27.78
2018-08-20T07:56:06.662Z,27.99
2018-08-20T07:57:06.581Z,27.91
2018-08-20T07:58:06.501Z,28.20
2018-08-20T07:59:06.437Z,28.36
2018-08-20T08:00:06.341Z,28.13
2018-08-20T08:01:06.356Z,28.25
2018-08-20T08:02:06.180Z,28.09
2018-08-20T08:03:06.099Z,28.23
2018-08-20T08:04:06.036Z,27.98
2018-08-20T08:05:05.942Z,28.18
2018-08-20T08:06:05.865Z,28.14
2018-08-20T08:07:05.779Z,28.18
2018-08-20T08:08:05.699Z,28.40
2018-08-20T08:09:05.638Z,28.36
2018-08-20T08:10:05.539Z,28.28
2018-08-20T08:11:05.468Z,28.32
2018-08-20T08:12:05.380Z,28.36
2018-08-20T08:13:05.308Z,28.40
2018-08-20T08:14:05.261Z,28.64
2018-08-20T08:15:05.159Z,28.88
2018-08-20T08:16:05.064Z,28.69
2018-08-20T08:17:04.983Z,28.92
2018-08-20T08:18:04.903Z,28.55
2018-08-20T08:19:04.825Z,28.76
2018-08-20T08:20:04.761Z,29.05
2018-08-20T08:21:04.671Z,29.18
2018-08-20T08:22:04.587Z,29.07
2018-08-20T08:23:04.507Z,28.89
2018-08-20T08:24:04.431Z,28.69
2018-08-20T08:25:04.369Z,28.80
2018-08-20T08:26:04.275Z,29.03
2018-08-20T08:27:04.192Z,28.74
2018-08-20T08:28:04.111Z,29.15
2018-08-20T08:29:04.033Z,29.15
2018-08-20T08:30:03.973Z,29.44
2018-08-20T08:31:03.875Z,29.32
2018-08-20T08:32:03.800Z,29.48
2018-08-20T08:33:03.718Z,29.41
2018-08-20T08:34:03.640Z,29.69
2018-08-20T08:35:03.582Z,29.54
2018-08-20T08:36:03.484Z,29.52
2018-08-20T08:37:03.402Z,29.64
2018-08-20T08:38:03.381Z,29.66
2018-08-20T08:39:03.247Z,29.45
2018-08-20T08:40:03.187Z,29.71
2018-08-20T08:41:03.089Z,29.73
2018-08-20T08:42:03.011Z,29.78
2018-08-20T08:43:02.940Z,30.01
2018-08-20T08:44:02.857Z,29.86
2018-08-20T08:45:02.791Z,29.99
2018-08-20T08:46:02.695Z,30.01
2018-08-20T08:47:02.616Z,29.89
2018-08-20T08:48:02.542Z,29.58
2018-08-20T08:49:02.461Z,29.86
2018-08-20T08:50:02.411Z,29.99
2018-08-20T08:51:02.305Z,30.16
2018-08-20T08:52:02.230Z,30.22
2018-08-20T08:53:02.148Z,30.28
2018-08-20T08:54:02.071Z,30.25
2018-08-20T08:55:02.039Z,30.03
2018-08-20T08:56:01.914Z,30.18
2018-08-20T08:57:01.843Z,30.03
2018-08-20T08:58:01.757Z,30.44
2018-08-20T08:59:01.681Z,30.63
2018-08-20T09:00:01.622Z,30.51
2018-08-20T09:01:01.527Z,29.84
2018-08-20T09:02:01.446Z,29.88
2018-08-20T09:03:01.406Z,29.71
2018-08-20T09:04:01.292Z,29.92
2018-08-20T09:05:01.230Z,30.16
2018-08-20T09:06:01.137Z,29.95
2018-08-20T09:07:01.056Z,30.00
2018-08-20T09:08:00.981Z,30.11
2018-08-20T09:09:00.903Z,30.21
2018-08-20T09:10:00.842Z,30.30
2018-08-20T09:11:00.749Z,30.49
2018-08-20T09:12:00.669Z,30.78
2018-08-20T09:13:00.592Z,30.88
2018-08-20T09:14:00.514Z,30.94
2018-08-20T09:15:00.466Z,30.98
2018-08-20T09:16:00.361Z,31.37
2018-08-20T09:17:00.283Z,31.41
2018-08-20T09:18:00.203Z,31.68
2018-08-20T09:19:00.125Z,31.72
2018-08-20T09:20:00.066Z,31.25
2018-08-20T09:20:59.971Z,31.09
2018-08-20T09:21:59.896Z,30.98
2018-08-20T09:22:59.816Z,31.13
2018-08-20T09:23:59.742Z,31.25
2018-08-20T09:24:59.677Z,30.82
2018-08-20T09:25:59.582Z,30.90
2018-08-20T09:26:59.508Z,30.88
2018-08-20T09:27:59.430Z,30.72
2018-08-20T09:28:59.358Z,30.64
2018-08-20T09:29:59.296Z,30.76
2018-08-20T09:30:59.202Z,30.88
2018-08-20T09:31:59.119Z,30.75
2018-08-20T09:32:59.044Z,31.10
2018-08-20T09:33:58.965Z,31.19
2018-08-20T09:34:58.908Z,31.15
2018-08-20T09:35:58.810Z,31.35
2018-08-20T09:36:58.732Z,31.52
2018-08-20T09:37:58.656Z,31.28
2018-08-20T09:38:58.579Z,31.20
2018-08-20T09:39:58.518Z,31.45
2018-08-20T09:40:58.425Z,31.69
2018-08-20T09:41:58.348Z,31.59
2018-08-20T09:42:58.272Z,31.64
2018-08-20T09:43:58.194Z,31.75
2018-08-20T09:44:58.131Z,31.72
2018-08-20T09:45:58.040Z,31.71
2018-08-20T09:46:57.961Z,31.22
2018-08-20T09:47:57.888Z,31.20
2018-08-20T09:48:57.809Z,31.27
2018-08-20T09:49:57.749Z,31.49
2018-08-20T09:50:57.657Z,31.65
2018-08-20T09:51:57.579Z,31.41
2018-08-20T09:52:57.811Z,31.42
2018-08-20T09:53:57.425Z,31.05
2018-08-20T09:54:57.365Z,31.41
2018-08-20T09:55:57.271Z,31.68
2018-08-20T09:56:57.196Z,31.79
2018-08-20T09:57:57.116Z,32.12
2018-08-20T09:58:57.060Z,31.90
2018-08-20T09:59:57.085Z,31.84
2018-08-20T10:00:56.888Z,31.74
2018-08-20T10:01:56.810Z,31.68
2018-08-20T10:02:56.750Z,31.45
2018-08-20T10:03:56.657Z,31.27
2018-08-20T10:04:56.584Z,31.45
2018-08-20T10:05:56.519Z,31.41
2018-08-20T10:06:56.532Z,31.13
2018-08-20T10:07:56.353Z,31.07
2018-08-20T10:08:56.278Z,31.56
2018-08-20T10:09:56.199Z,31.53
2018-08-20T10:10:56.136Z,31.35
2018-08-20T10:11:56.045Z,31.28
2018-08-20T10:12:55.969Z,31.12
2018-08-20T10:13:55.993Z,31.16
2018-08-20T10:14:55.840Z,30.96
2018-08-20T10:15:55.754Z,30.64
2018-08-20T10:16:55.662Z,30.79
2018-08-20T10:17:55.590Z,30.97
2018-08-20T10:18:55.509Z,31.25
2018-08-20T10:19:55.436Z,31.67
2018-08-20T10:20:55.478Z,31.67
2018-08-20T10:21:55.280Z,31.69
2018-08-20T10:22:55.200Z,31.78
2018-08-20T10:23:55.125Z,31.87
2018-08-20T10:24:55.049Z,31.59
2018-08-20T10:25:54.984Z,31.68
2018-08-20T10:26:54.894Z,31.72
2018-08-20T10:27:54.946Z,32.06
2018-08-20T10:28:54.740Z,31.99
2018-08-20T10:29:54.663Z,32.25
2018-08-20T10:30:54.603Z,32.22
2018-08-20T10:31:54.526Z,32.12
2018-08-20T10:32:54.434Z,31.98
2018-08-20T10:33:54.356Z,31.95
2018-08-20T10:34:54.395Z,31.78
2018-08-20T10:35:54.219Z,31.90
2018-08-20T10:36:54.128Z,31.98
2018-08-20T10:37:54.221Z,32.19
2018-08-20T10:38:53.971Z,31.87
2018-08-20T10:39:53.897Z,31.75
2018-08-20T10:40:53.836Z,31.68
2018-08-20T10:41:53.847Z,32.03
2018-08-20T10:42:53.665Z,32.17
2018-08-20T10:43:53.591Z,31.72
2018-08-20T10:44:53.515Z,32.05
2018-08-20T10:45:53.453Z,32.44
2018-08-20T10:46:53.360Z,32.47
2018-08-20T10:47:53.285Z,32.25
2018-08-20T10:48:53.207Z,32.50
2018-08-20T10:49:53.139Z,32.46
2018-08-20T10:50:53.072Z,32.41
2018-08-20T10:51:52.983Z,32.73
2018-08-20T10:52:52.901Z,32.44
2018-08-20T10:53:52.829Z,32.68
2018-08-20T10:54:52.748Z,32.58
2018-08-20T10:55:52.788Z,33.20
2018-08-20T10:56:52.596Z,32.87
2018-08-20T10:57:52.522Z,33.00
2018-08-20T10:58:52.443Z,33.24
2018-08-20T10:59:52.367Z,32.96
2018-08-20T11:00:52.307Z,33.05
2018-08-20T11:01:52.222Z,33.21
2018-08-20T11:02:52.243Z,33.05
2018-08-20T11:03:52.063Z,33.20
2018-08-20T11:04:51.990Z,33.15
2018-08-20T11:05:51.925Z,32.19
2018-08-20T11:06:51.834Z,32.61
2018-08-20T11:07:51.760Z,32.72
2018-08-20T11:08:51.681Z,32.80
2018-08-20T11:09:51.602Z,32.90
2018-08-20T11:10:51.628Z,32.83
2018-08-20T11:11:51.452Z,32.99
2018-08-20T11:12:51.377Z,32.96
2018-08-20T11:13:51.302Z,33.06
2018-08-20T11:14:51.225Z,32.66
2018-08-20T11:15:51.166Z,32.22
2018-08-20T11:16:51.074Z,32.51
2018-08-20T11:17:50.996Z,32.54
2018-08-20T11:18:50.933Z,32.72
2018-08-20T11:19:50.846Z,32.72
2018-08-20T11:20:50.791Z,32.72
2018-08-20T11:21:50.791Z,32.88
2018-08-20T11:22:50.657Z,32.88
2018-08-20T11:23:50.545Z,33.20
2018-08-20T11:24:50.465Z,33.40
2018-08-20T11:25:50.406Z,33.28
2018-08-20T11:26:50.324Z,33.57
2018-08-20T11:27:50.236Z,33.49
2018-08-20T11:28:50.162Z,33.70
2018-08-20T11:29:50.088Z,33.75
2018-08-20T11:30:50.026Z,33.03
2018-08-20T11:31:49.941Z,32.44
2018-08-20T11:32:49.858Z,31.41
2018-08-20T11:33:49.780Z,31.22
2018-08-20T11:34:49.704Z,31.09
2018-08-20T11:35:49.740Z,31.57
2018-08-20T11:36:49.553Z,31.87
2018-08-20T11:37:49.478Z,32.43
2018-08-20T11:38:49.403Z,32.44
2018-08-20T11:39:49.324Z,32.62
2018-08-20T11:40:49.307Z,32.73
2018-08-20T11:41:49.173Z,32.61
2018-08-20T11:42:49.096Z,32.41
2018-08-20T11:43:49.019Z,32.06
2018-08-20T11:44:48.942Z,31.57
2018-08-20T11:45:48.881Z,31.40
2018-08-20T11:46:48.793Z,31.74
2018-08-20T11:47:48.715Z,31.69
2018-08-20T11:48:48.639Z,31.03
2018-08-20T11:49:48.559Z,31.65
2018-08-20T11:50:48.484Z,31.74
2018-08-20T11:51:48.422Z,31.94
2018-08-20T11:52:48.331Z,31.99
2018-08-20T11:53:48.251Z,32.34
2018-08-20T11:54:48.175Z,32.96
2018-08-20T11:55:48.115Z,33.15
2018-08-20T11:56:48.022Z,33.21
2018-08-20T11:57:47.942Z,32.91
2018-08-20T11:58:47.884Z,33.07
2018-08-20T11:59:47.796Z,32.85
2018-08-20T12:00:47.715Z,33.03
2018-08-20T12:01:47.656Z,33.15
2018-08-20T12:02:47.669Z,32.91
2018-08-20T12:03:47.482Z,32.13
2018-08-20T12:04:47.405Z,32.47
2018-08-20T12:05:47.335Z,32.91
2018-08-20T12:06:47.300Z,32.76
2018-08-20T12:07:47.229Z,32.66
2018-08-20T12:08:47.100Z,32.72
2018-08-20T12:09:47.023Z,32.76
2018-08-20T12:10:46.946Z,32.65
2018-08-20T12:11:46.888Z,32.91
2018-08-20T12:12:46.793Z,32.83
2018-08-20T12:13:46.714Z,33.29
2018-08-20T12:14:46.639Z,33.29
2018-08-20T12:15:46.582Z,33.20
2018-08-20T12:16:46.502Z,33.26
2018-08-20T12:17:46.410Z,33.11
2018-08-20T12:18:46.332Z,33.07
2018-08-20T12:19:46.257Z,32.99
2018-08-20T12:20:46.182Z,33.24
2018-08-20T12:21:46.122Z,33.26
2018-08-20T12:22:46.027Z,33.20
2018-08-20T12:23:45.951Z,33.29
2018-08-20T12:24:45.879Z,33.49
2018-08-20T12:25:45.798Z,33.31
2018-08-20T12:26:45.733Z,33.03
2018-08-20T12:27:45.643Z,33.02
2018-08-20T12:28:45.567Z,33.00
2018-08-20T12:29:45.595Z,32.91
2018-08-20T12:30:45.450Z,32.87
2018-08-20T12:31:45.355Z,32.84
2018-08-20T12:32:45.268Z,32.83
2018-08-20T12:33:45.188Z,32.91
2018-08-20T12:34:45.118Z,32.83
2018-08-20T12:35:45.035Z,33.26
2018-08-20T12:36:44.975Z,33.35
2018-08-20T12:37:44.880Z,33.49
2018-08-20T12:38:44.806Z,33.89
2018-08-20T12:39:44.737Z,34.08
2018-08-20T12:40:44.701Z,34.12
2018-08-20T12:41:44.595Z,33.96
2018-08-20T12:42:44.502Z,34.03
2018-08-20T12:43:44.425Z,33.65
2018-08-20T12:44:44.348Z,33.29
2018-08-20T12:45:44.273Z,32.98
2018-08-20T12:46:44.209Z,32.99
2018-08-20T12:47:44.120Z,32.84
2018-08-20T12:48:44.045Z,32.73
2018-08-20T12:49:43.971Z,32.63
2018-08-20T12:50:43.895Z,31.71
2018-08-20T12:51:43.833Z,31.25